Main page
METAR-TAF:

METAR-TAF

Airports :

Stockholm Västerås Airport

Västerås, Sweden

latitude: 59-35N, longitude: 016-38E, elevation: 6 m

Current weather observation

The report was made 15 minutes ago, at 17:20 UTC
Wind 8 kt from the Southwest, varying between South and West/Southwest
Temperature 22°C
Humidity 60%
Pressure 1011 hPa
Visibility 10 km or more

METAR: ESOW 231720Z AUTO 22008KT 180V250 9999 NCD 22/14 Q1011

Time: 19:35 (17:35 UTC)

Forecast

The report was made 6 hours and 5 minutes ago, at 11:30 UTC
Forecast valid from 23 at 12 UTC to 23 at 15 UTC
Wind 5 kt from the Southwest
Visibility 10 km or more
Scattered clouds at a height of 2000 ft, Towering cumulus.
Becoming
from 23 at 12 UTC to 23 at 13 UTC
Scattered clouds at a height of 3000 ft

TAF: ESOW 231130Z 2312/2315 22005KT 9999 SCT020TCU BECMG 2312/2313 SCT030

Weather observations and forecasts of more than 4000 airports (METAR and TAF reports).

The available stations are represented by yellow and red dots on the map.

Hover mouse over dot to see the name of the station.

Then click to see weather observations and forecasts.

To change the map : click on the green buttons with a black cross to zoom in, on the green button with a dash to zoom out, or on the green arrows for adjacent maps.


METAR-TAF: